Time;durP1;ratioP1;P1;durP2;ratioP2;P2;SDS_P1;SDS_P2;PMS_P1;PMS_P2;Temp;Humidity;BMP_temperature;BMP_pressure;BME280_temperature;BME280_humidity;BME280_pressure;Samples;Min_cycle;Max_cycle;Signal;HPM_P1;HPM_P2
2022/07/27 00:01:15;;;;;;;;;4.00;2.75;;;;;21.05;52.23;101658.13;4962779;28;45456;-60
2022/07/27 00:03:41;;;;;;;;;2.25;1.50;;;;;21.07;52.22;101655.31;4962888;28;45392;-59
2022/07/27 00:06:07;;;;;;;;;5.00;4.00;;;;;21.08;52.23;101654.34;4962842;28;45459;-60
2022/07/27 00:08:33;;;;;;;;;3.00;2.00;;;;;21.08;52.41;101648.97;4962629;28;45203;-59
2022/07/27 00:10:59;;;;;;;;;1.75;1.75;;;;;21.07;52.69;101658.00;4962506;28;45349;-59
2022/07/27 00:13:24;;;;;;;;;2.50;2.00;;;;;21.06;52.77;101653.63;4962437;28;45259;-59
2022/07/27 00:15:50;;;;;;;;;2.50;2.50;;;;;21.05;52.63;101643.91;4962638;28;45413;-59
2022/07/27 00:18:15;;;;;;;;;2.25;1.75;;;;;21.02;52.76;101650.38;4977666;28;45291;-59
2022/07/27 00:20:41;;;;;;;;;2.25;1.00;;;;;21.02;52.56;101649.53;4962645;28;45230;-60
2022/07/27 00:23:07;;;;;;;;;2.50;2.25;;;;;21.04;52.72;101642.22;4962298;28;45412;-60
2022/07/27 00:25:34;;;;;;;;;3.25;3.00;;;;;21.03;52.92;101648.56;4962785;28;45302;-60
2022/07/27 00:27:59;;;;;;;;;8.25;4.00;;;;;21.00;53.21;101641.63;4962523;28;45638;-60
2022/07/27 00:30:25;;;;;;;;;3.00;2.50;;;;;20.96;52.84;101645.56;4962456;28;46015;-60
2022/07/27 00:32:51;;;;;;;;;3.50;3.00;;;;;20.95;53.31;101646.56;4960885;28;45319;-60
2022/07/27 00:35:17;;;;;;;;;2.75;1.50;;;;;20.93;53.04;101645.81;4962580;28;45524;-60
2022/07/27 00:37:43;;;;;;;;;2.75;2.75;;;;;20.92;53.36;101644.97;4953776;28;45237;-60
2022/07/27 00:40:10;;;;;;;;;2.75;2.75;;;;;20.90;53.78;101636.25;4953446;28;45168;-60
2022/07/27 00:42:36;;;;;;;;;3.00;3.00;;;;;20.90;53.77;101651.47;4962154;28;45226;-60
2022/07/27 00:45:02;;;;;;;;;3.50;2.75;;;;;20.88;53.85;101642.72;4962538;28;45232;-60
2022/07/27 00:47:28;;;;;;;;;2.00;2.00;;;;;20.88;53.75;101640.88;4962234;28;45618;-60
2022/07/27 00:49:53;;;;;;;;;1.75;1.75;;;;;20.89;53.90;101639.91;4962264;28;45355;-60
2022/07/27 00:52:20;;;;;;;;;1.50;1.50;;;;;20.91;53.88;101645.97;4962143;28;45329;-60
2022/07/27 00:54:46;;;;;;;;;2.00;1.50;;;;;20.89;54.00;101644.41;4962008;28;45436;-62
2022/07/27 00:57:13;;;;;;;;;4.00;3.00;;;;;20.86;53.81;101642.88;4961993;28;45237;-60
2022/07/27 00:59:40;;;;;;;;;3.25;3.25;;;;;20.86;53.82;101639.34;4961923;28;46058;-60
2022/07/27 01:02:06;;;;;;;;;3.00;3.00;;;;;20.83;53.99;101632.41;4961422;28;45382;-60
2022/07/27 01:04:33;;;;;;;;;5.00;3.00;;;;;20.80;54.24;101642.56;4962063;28;45292;-60
2022/07/27 01:06:59;;;;;;;;;3.50;2.50;;;;;20.77;53.89;101638.28;4961922;28;45342;-60
2022/07/27 01:12:14;;;;;;;;;4.75;1.75;;;;;20.75;54.50;101634.06;4961872;28;45377;-60
2022/07/27 01:14:39;;;;;;;;;4.75;2.75;;;;;20.77;54.28;101637.44;4961855;28;45215;-60
2022/07/27 01:17:06;;;;;;;;;3.75;2.75;;;;;20.76;54.56;101633.94;4962097;28;45140;-60
2022/07/27 01:19:34;;;;;;;;;5.25;4.00;;;;;20.72;54.35;101627.16;4961835;28;45445;-60
2022/07/27 01:22:00;;;;;;;;;4.75;2.25;;;;;20.69;54.33;101624.72;4961860;28;45328;-60
2022/07/27 01:24:25;;;;;;;;;5.25;3.00;;;;;20.70;54.45;101630.97;4961615;28;45322;-60
2022/07/27 01:26:51;;;;;;;;;3.50;1.75;;;;;20.66;54.84;101622.34;4962070;28;45393;-60
2022/07/27 01:29:16;;;;;;;;;4.75;3.00;;;;;20.66;54.69;101624.16;4961719;28;45876;-60
2022/07/27 01:31:43;;;;;;;;;3.50;2.00;;;;;20.66;54.54;101629.53;4961873;28;45262;-58
2022/07/27 01:34:08;;;;;;;;;2.00;1.00;;;;;20.64;54.49;101624.31;4961657;28;45429;-60
2022/07/27 01:36:34;;;;;;;;;5.00;4.00;;;;;20.63;54.85;101611.91;4961837;28;45520;-60
2022/07/27 01:38:59;;;;;;;;;3.75;3.25;;;;;20.60;55.20;101626.38;4943649;28;45492;-60
2022/07/27 01:41:25;;;;;;;;;3.25;3.00;;;;;20.53;54.86;101614.53;4961787;28;45327;-60
2022/07/27 01:43:50;;;;;;;;;5.50;3.00;;;;;20.46;55.23;101621.41;4961617;28;45289;-60
2022/07/27 01:46:16;;;;;;;;;4.50;2.50;;;;;20.41;55.45;101614.72;4976623;28;45496;-60
2022/07/27 01:48:41;;;;;;;;;3.75;2.25;;;;;20.41;55.30;101610.22;4961482;28;46143;-60
2022/07/27 01:51:07;;;;;;;;;4.00;2.50;;;;;20.41;55.10;101614.72;4961662;28;45271;-60
2022/07/27 01:53:32;;;;;;;;;5.50;2.50;;;;;20.41;55.65;101609.38;4961380;28;45376;-60
2022/07/27 01:55:58;;;;;;;;;5.75;3.50;;;;;20.35;55.46;101611.59;4961654;28;45309;-60
2022/07/27 01:58:23;;;;;;;;;2.50;2.50;;;;;20.32;55.34;101617.22;4961308;28;46040;-59
2022/07/27 02:00:49;;;;;;;;;4.00;3.25;;;;;20.32;55.43;101611.88;4961454;28;45456;-59
2022/07/27 02:03:14;;;;;;;;;2.75;2.25;;;;;20.32;55.79;101616.38;4961728;28;45352;-59
2022/07/27 02:05:40;;;;;;;;;2.00;2.00;;;;;20.29;55.98;101614.78;4961695;28;45333;-59
2022/07/27 02:08:07;;;;;;;;;5.00;2.00;;;;;20.28;55.53;101605.06;4960996;28;46039;-59
2022/07/27 02:10:34;;;;;;;;;3.50;2.00;;;;;20.27;56.10;101610.56;4961571;28;45478;-59
2022/07/27 02:12:59;;;;;;;;;5.75;4.00;;;;;20.23;56.17;101610.00;4962331;28;45433;-59
2022/07/27 02:15:27;;;;;;;;;3.50;2.75;;;;;20.19;55.88;101605.03;4964858;28;45326;-59
2022/07/27 02:17:53;;;;;;;;;2.75;2.75;;;;;20.14;56.03;101612.59;4964160;28;45357;-59
2022/07/27 02:20:21;;;;;;;;;4.75;2.50;;;;;20.13;56.37;101614.41;4964480;28;45385;-59
2022/07/27 02:22:46;;;;;;;;;3.75;2.00;;;;;20.11;56.43;101621.75;4964294;28;45310;-59
2022/07/27 02:25:14;;;;;;;;;2.50;2.50;;;;;20.11;55.99;101612.88;4964459;28;45322;-59
2022/07/27 02:27:41;;;;;;;;;5.50;4.00;;;;;20.09;56.37;101610.31;4964384;28;45167;-59
2022/07/27 02:30:09;;;;;;;;;3.75;2.00;;;;;20.05;55.93;101616.91;4964264;28;45358;-60
2022/07/27 02:32:34;;;;;;;;;3.50;3.00;;;;;20.04;56.30;101618.72;4964053;28;45340;-59
2022/07/27 02:35:00;;;;;;;;;2.50;2.50;;;;;20.02;56.59;101620.69;4964573;28;45425;-58
2022/07/27 02:37:25;;;;;;;;;3.25;2.25;;;;;20.03;56.58;101624.22;4958132;28;45976;-59
2022/07/27 02:39:51;;;;;;;;;4.50;2.00;;;;;20.00;56.56;101613.78;4952539;28;45365;-59
2022/07/27 02:42:18;;;;;;;;;5.00;3.00;;;;;19.96;56.44;101623.88;4964225;28;45295;-59
2022/07/27 02:44:43;;;;;;;;;4.25;2.75;;;;;19.97;56.17;101622.91;4964494;28;45272;-59
2022/07/27 02:47:09;;;;;;;;;3.75;3.00;;;;;19.96;56.46;101617.69;4963721;28;46020;-59
2022/07/27 02:49:35;;;;;;;;;3.50;3.25;;;;;19.92;56.67;101614.44;4964279;28;45223;-59
2022/07/27 02:52:00;;;;;;;;;5.75;3.00;;;;;19.92;56.55;101619.78;4964020;28;45403;-59
2022/07/27 02:54:26;;;;;;;;;5.25;3.00;;;;;19.89;56.84;101617.34;4963780;28;45277;-59
2022/07/27 02:56:54;;;;;;;;;5.50;4.25;;;;;19.81;56.39;101611.81;4963868;28;45528;-60
2022/07/27 02:59:21;;;;;;;;;4.00;3.75;;;;;19.71;56.42;101609.06;4964124;28;45322;-60
2022/07/27 03:01:47;;;;;;;;;3.75;3.00;;;;;19.66;56.82;101616.63;4963765;28;45395;-60
2022/07/27 03:04:13;;;;;;;;;4.00;2.75;;;;;19.64;57.12;101605.22;4964023;28;45259;-60
2022/07/27 03:06:38;;;;;;;;;10.00;3.00;;;;;19.61;57.26;101601.97;4963523;28;45373;-60
2022/07/27 03:09:04;;;;;;;;;2.75;2.50;;;;;19.59;57.45;101609.22;4963798;28;45254;-59
2022/07/27 03:11:30;;;;;;;;;5.25;3.00;;;;;19.52;57.07;101607.06;4963799;28;45499;-60
2022/07/27 03:13:55;;;;;;;;;4.25;3.50;;;;;19.49;56.95;101603.78;4962613;28;45546;-60
2022/07/27 03:16:21;;;;;;;;;4.25;3.25;;;;;19.46;57.45;101614.75;4963401;28;45865;-59
2022/07/27 03:18:46;;;;;;;;;4.00;3.00;;;;;19.42;57.24;101607.94;4963431;28;45263;-59
2022/07/27 03:21:13;;;;;;;;;4.00;3.75;;;;;19.38;57.11;101603.84;4963625;28;45400;-59
2022/07/27 03:23:39;;;;;;;;;5.50;3.75;;;;;19.36;57.19;101603.13;4963181;28;45293;-59
2022/07/27 03:26:04;;;;;;;;;4.00;3.50;;;;;19.38;57.55;101606.50;4963299;28;45482;-59
2022/07/27 03:28:30;;;;;;;;;3.00;3.00;;;;;19.43;57.06;101601.63;4963611;28;45267;-59
2022/07/27 03:30:56;;;;;;;;;4.50;2.00;;;;;19.43;57.08;101601.63;4963306;28;45270;-59
2022/07/27 03:33:22;;;;;;;;;2.50;2.00;;;;;19.42;57.63;101611.44;4963761;28;45604;-59
2022/07/27 03:35:47;;;;;;;;;6.00;4.25;;;;;19.42;57.43;101599.91;4963262;28;45445;-59
2022/07/27 03:38:13;;;;;;;;;3.25;3.25;;;;;19.43;57.35;101598.94;4950807;28;45236;-59
2022/07/27 03:40:39;;;;;;;;;4.75;3.00;;;;;19.42;57.05;101613.28;4958002;28;45236;-59
2022/07/27 03:43:05;;;;;;;;;5.75;4.00;;;;;19.39;57.45;101610.88;4963432;28;45353;-59
2022/07/27 03:45:30;;;;;;;;;5.25;3.00;;;;;19.36;57.34;101608.47;4963009;28;45227;-59
2022/07/27 03:47:56;;;;;;;;;7.00;4.00;;;;;19.37;57.23;101613.69;4963056;28;45254;-59
2022/07/27 03:50:22;;;;;;;;;3.25;1.75;;;;;19.36;56.92;101608.47;4963275;28;45172;-59
2022/07/27 03:52:47;;;;;;;;;3.00;2.75;;;;;19.33;56.81;101609.53;4963221;28;45258;-59
2022/07/27 03:55:13;;;;;;;;;3.00;3.00;;;;;19.33;56.75;101611.38;4977816;28;46483;-59
2022/07/27 03:57:39;;;;;;;;;4.00;3.00;;;;;19.35;56.88;101609.41;4963087;28;45464;-59
2022/07/27 04:00:05;;;;;;;;;5.50;4.00;;;;;19.29;56.72;101607.28;4963108;28;45342;-60
2022/07/27 04:02:31;;;;;;;;;3.50;2.50;;;;;19.28;56.80;101610.91;4963211;28;45651;-62
2022/07/27 04:04:56;;;;;;;;;4.50;2.25;;;;;19.24;57.08;101608.47;4962729;28;45671;-59
2022/07/27 04:07:22;;;;;;;;;4.50;4.00;;;;;19.18;56.92;101603.63;4962869;28;45354;-59
2022/07/27 04:09:47;;;;;;;;;5.50;4.00;;;;;19.13;56.85;101610.34;4962763;28;45322;-59
2022/07/27 04:12:13;;;;;;;;;4.50;3.00;;;;;19.13;56.88;101615.69;4962987;28;45527;-60
2022/07/27 04:14:38;;;;;;;;;3.25;3.00;;;;;19.11;56.55;101607.78;4962590;28;45360;-59
2022/07/27 04:17:04;;;;;;;;;4.00;4.00;;;;;19.10;56.81;101608.75;4962526;28;45259;-60
2022/07/27 04:19:29;;;;;;;;;4.50;3.25;;;;;19.09;56.50;101608.88;4962937;28;45215;-59
2022/07/27 04:21:56;;;;;;;;;3.75;3.00;;;;;19.07;56.76;101610.84;4962816;28;45144;-60
2022/07/27 04:24:21;;;;;;;;;5.75;3.00;;;;;18.96;56.87;101601.03;4962314;28;46187;-59
2022/07/27 04:26:47;;;;;;;;;2.50;1.25;;;;;18.96;56.40;101606.38;4977560;28;45247;-60
2022/07/27 04:29:12;;;;;;;;;6.00;3.25;;;;;18.95;56.71;101602.81;4962753;28;45159;-60
2022/07/27 04:31:38;;;;;;;;;3.75;3.00;;;;;18.95;57.08;101610.00;4962600;28;45670;-60
2022/07/27 04:34:03;;;;;;;;;4.00;3.50;;;;;18.97;56.40;101608.06;4977180;28;45325;-59
2022/07/27 04:36:28;;;;;;;;;7.00;3.00;;;;;18.99;56.85;101608.78;4961475;28;45271;-60
2022/07/27 04:38:54;;;;;;;;;3.25;2.00;;;;;19.00;56.54;101605.16;4944539;28;45548;-60
2022/07/27 04:41:19;;;;;;;;;3.50;2.25;;;;;18.96;56.44;101617.06;4962660;28;45436;-60
2022/07/27 04:43:45;;;;;;;;;6.50;3.75;;;;;18.95;56.90;101610.84;4962286;28;46075;-60
2022/07/27 04:46:12;;;;;;;;;3.75;2.75;;;;;18.98;56.41;101609.75;4962099;28;45330;-58
2022/07/27 04:48:37;;;;;;;;;4.00;3.00;;;;;18.99;56.28;101614.13;4962339;28;45238;-58
2022/07/27 04:51:03;;;;;;;;;4.00;3.00;;;;;18.98;56.27;101607.09;4962273;28;45207;-58
2022/07/27 04:53:28;;;;;;;;;5.25;2.25;;;;;18.96;56.51;101612.56;4962584;28;45968;-59
2022/07/27 04:55:54;;;;;;;;;2.00;2.00;;;;;18.96;56.19;101609.06;4962022;28;45287;-59
2022/07/27 04:58:20;;;;;;;;;3.75;2.75;;;;;18.94;56.01;101608.31;4962584;28;45163;-59
2022/07/27 05:00:45;;;;;;;;;5.75;2.75;;;;;18.91;56.29;101603.22;4961194;28;45541;-59
2022/07/27 05:03:11;;;;;;;;;4.25;3.25;;;;;18.86;56.15;101621.41;4961770;28;45218;-59
2022/07/27 05:05:36;;;;;;;;;5.25;2.50;;;;;18.83;56.11;101616.34;4961942;28;45163;-59
2022/07/27 05:08:02;;;;;;;;;3.00;3.00;;;;;18.81;56.02;101611.13;4961765;28;45333;-59
2022/07/27 05:10:28;;;;;;;;;3.00;2.75;;;;;18.78;56.40;101615.84;4962014;28;46272;-58
2022/07/27 05:12:54;;;;;;;;;3.25;2.75;;;;;18.74;56.15;101615.25;4961967;28;46202;-59
2022/07/27 05:15:20;;;;;;;;;3.00;3.00;;;;;18.70;56.14;101611.13;4961550;28;45286;-59
2022/07/27 05:17:46;;;;;;;;;3.75;3.00;;;;;18.68;56.35;101613.06;4961803;28;45282;-59
2022/07/27 05:20:12;;;;;;;;;4.50;2.25;;;;;18.65;56.14;101618.63;4961964;28;45342;-59
2022/07/27 05:22:37;;;;;;;;;4.00;2.25;;;;;18.63;56.18;101615.22;4961581;28;45253;-59
2022/07/27 05:25:03;;;;;;;;;4.25;3.25;;;;;18.65;56.42;101614.16;4961559;28;45322;-59
2022/07/27 05:27:29;;;;;;;;;4.00;3.25;;;;;18.70;56.35;101619.13;4961799;28;45247;-59
2022/07/27 05:29:54;;;;;;;;;5.25;2.75;;;;;18.73;56.24;101626.06;4961699;28;45571;-60
2022/07/27 05:32:20;;;;;;;;;4.50;2.00;;;;;18.78;56.07;101626.53;4961546;28;45909;-59
2022/07/27 05:34:45;;;;;;;;;7.25;3.50;;;;;18.79;56.21;101623.72;4960151;28;45427;-60
2022/07/27 05:37:11;;;;;;;;;3.25;3.00;;;;;18.81;56.25;101629.81;4957745;28;45263;-59
2022/07/27 05:39:37;;;;;;;;;5.75;2.00;;;;;18.86;55.77;101635.63;4948132;28;45657;-59
2022/07/27 05:42:04;;;;;;;;;5.50;3.00;;;;;18.87;56.04;101633.78;4961435;28;46230;-59
2022/07/27 05:44:29;;;;;;;;;2.25;2.25;;;;;18.89;55.83;101635.38;4961321;28;45289;-60
2022/07/27 05:46:55;;;;;;;;;4.50;3.00;;;;;18.92;55.97;101635.13;4962416;28;45285;-59
2022/07/27 05:49:21;;;;;;;;;4.00;3.25;;;;;18.97;56.00;101634.78;4964911;28;45326;-59
2022/07/27 05:51:47;;;;;;;;;4.25;4.25;;;;;19.03;55.53;101633.41;4964839;28;46194;-59
2022/07/27 05:54:12;;;;;;;;;4.00;2.50;;;;;19.07;55.90;101635.72;4964377;28;45223;-59
2022/07/27 05:56:37;;;;;;;;;6.75;3.00;;;;;19.13;55.83;101639.72;4964849;28;45216;-58
2022/07/27 05:59:03;;;;;;;;;3.75;2.00;;;;;19.16;55.28;101642.97;4964770;28;45233;-59
2022/07/27 06:01:29;;;;;;;;;5.00;4.00;;;;;19.18;55.42;101641.03;4964550;28;45273;-59
2022/07/27 06:03:54;;;;;;;;;5.50;4.00;;;;;19.24;55.10;101648.56;4964672;28;45273;-59
2022/07/27 06:09:04;;;;;;;;;6.50;4.00;;;;;19.29;55.33;101640.19;4964657;28;45535;-59
2022/07/27 06:11:29;;;;;;;;;5.00;2.25;;;;;19.34;55.12;101637.97;4964290;28;45385;-59
2022/07/27 06:13:55;;;;;;;;;4.25;2.25;;;;;19.42;55.18;101648.00;4964516;28;45189;-60
2022/07/27 06:16:22;;;;;;;;;3.25;3.25;;;;;19.48;55.38;101640.34;4964381;28;45321;-59
2022/07/27 06:18:47;;;;;;;;;4.00;3.50;;;;;19.56;54.88;101647.72;4964646;28;45427;-59
2022/07/27 06:21:13;;;;;;;;;6.25;3.00;;;;;19.61;55.05;101642.91;4964188;28;45403;-60
2022/07/27 06:23:38;;;;;;;;;4.50;2.25;;;;;19.62;54.41;101641.06;4964568;28;45368;-60
2022/07/27 06:26:04;;;;;;;;;2.00;2.00;;;;;19.72;54.73;101648.19;4964369;28;45337;-60
2022/07/27 06:28:30;;;;;;;;;3.50;3.25;;;;;19.80;54.88;101644.88;4964477;28;45499;-60
2022/07/27 06:30:55;;;;;;;;;5.25;3.00;;;;;19.89;54.26;101638.75;4963985;28;45414;-60
2022/07/27 06:33:26;;;;;;;;;4.25;4.00;;;;;20.00;54.63;101638.72;4964461;28;45282;-60
2022/07/27 06:35:53;;;;;;;;;2.25;2.25;;;;;20.15;54.06;101646.41;4964278;28;45594;-59
2022/07/27 06:38:20;;;;;;;;;3.25;2.75;;;;;20.23;54.16;101644.78;4950701;28;45608;-59
2022/07/27 06:40:46;;;;;;;;;5.50;4.00;;;;;20.31;53.94;101641.44;4959770;28;45966;-59
2022/07/27 06:43:12;;;;;;;;;8.25;5.00;;;;;20.42;53.93;101649.38;4964054;28;45457;-59
2022/07/27 06:45:37;;;;;;;;;3.75;2.50;;;;;20.52;53.87;101650.31;4964089;28;45475;-59
2022/07/27 06:48:03;;;;;;;;;6.50;3.00;;;;;20.58;53.36;101647.09;4963597;28;45322;-60
2022/07/27 06:50:29;;;;;;;;;8.75;4.75;;;;;20.66;53.01;101653.63;4963786;28;45453;-59
2022/07/27 06:52:54;;;;;;;;;3.25;2.75;;;;;20.72;53.24;101655.78;4963947;28;45214;-61
2022/07/27 06:55:20;;;;;;;;;4.25;4.00;;;;;20.75;52.68;101644.78;4963964;28;45239;-59
2022/07/27 06:57:45;;;;;;;;;5.75;2.75;;;;;20.75;52.81;101653.66;4964040;28;45515;-62
2022/07/27 07:00:11;;;;;;;;;3.00;2.75;;;;;20.81;52.95;101652.28;4963221;28;45889;-59
2022/07/27 07:02:39;;;;;;;;;4.50;2.75;;;;;20.85;52.71;101651.00;4963744;28;45236;-59
2022/07/27 07:05:04;;;;;;;;;2.25;2.25;;;;;20.86;52.30;101653.56;4963610;28;45366;-59
2022/07/27 07:07:30;;;;;;;;;2.50;2.25;;;;;20.92;52.48;101655.69;4963504;28;45338;-59
2022/07/27 07:09:55;;;;;;;;;5.50;3.50;;;;;21.02;52.32;101657.59;4963431;28;45374;-59
2022/07/27 07:12:21;;;;;;;;;6.75;3.00;;;;;21.05;52.37;101660.81;4963716;28;45325;-60
2022/07/27 07:14:46;;;;;;;;;3.00;3.00;;;;;21.03;51.89;101661.94;4963613;28;45338;-59
2022/07/27 07:17:12;;;;;;;;;5.75;3.50;;;;;21.01;51.88;101666.56;4963483;28;45487;-59
2022/07/27 07:19:38;;;;;;;;;7.00;3.50;;;;;21.03;51.87;101664.63;4963139;28;45247;-59
2022/07/27 07:22:03;;;;;;;;;5.00;3.50;;;;;21.08;51.74;101670.41;4963511;28;45278;-59
2022/07/27 07:24:29;;;;;;;;;3.25;2.75;;;;;21.14;51.92;101667.19;4963421;28;45262;-59
2022/07/27 07:26:54;;;;;;;;;4.50;2.25;;;;;21.13;51.82;101666.34;4963769;28;45447;-59
2022/07/27 07:29:20;;;;;;;;;3.75;2.00;;;;;21.18;51.64;101661.44;4963185;28;45405;-59
2022/07/27 07:31:46;;;;;;;;;7.75;4.25;;;;;21.17;51.45;101659.75;4963435;28;45252;-59
2022/07/27 07:34:11;;;;;;;;;5.00;3.75;;;;;21.16;51.60;101663.38;4963131;28;45238;-59
2022/07/27 07:36:36;;;;;;;;;4.50;3.75;;;;;21.20;51.51;101663.97;4963533;28;45500;-59
2022/07/27 07:39:02;;;;;;;;;6.00;3.50;;;;;21.23;51.42;101660.16;4945408;28;46122;-59
2022/07/27 07:41:28;;;;;;;;;5.00;3.50;;;;;21.24;51.56;101661.84;4963271;28;45370;-59
2022/07/27 07:43:53;;;;;;;;;7.00;4.00;;;;;21.29;51.35;101659.66;4963493;28;45299;-59
2022/07/27 07:46:19;;;;;;;;;5.00;2.50;;;;;21.31;51.45;101666.56;4963186;28;45282;-59
2022/07/27 07:48:44;;;;;;;;;5.00;4.00;;;;;21.34;51.21;101671.66;4962933;28;45402;-59
2022/07/27 07:51:10;;;;;;;;;5.00;4.50;;;;;21.40;51.37;101675.59;4962921;28;45329;-59
2022/07/27 07:53:36;;;;;;;;;4.75;4.75;;;;;21.41;51.29;101667.44;4962848;28;45474;-59
2022/07/27 07:56:02;;;;;;;;;3.00;2.75;;;;;21.43;51.36;101664.63;4963088;28;45443;-59
2022/07/27 07:58:28;;;;;;;;;5.75;4.50;;;;;21.46;51.20;101661.63;4962967;28;45238;-59
2022/07/27 08:00:54;;;;;;;;;5.50;3.75;;;;;21.48;51.33;101651.63;4962773;28;45242;-59
2022/07/27 08:03:19;;;;;;;;;3.75;2.75;;;;;21.54;50.99;101663.63;4963047;28;45224;-59
2022/07/27 08:05:45;;;;;;;;;7.50;4.25;;;;;21.55;51.28;101658.13;4963135;28;45233;-59
2022/07/27 08:08:10;;;;;;;;;7.00;4.25;;;;;21.58;51.10;101655.19;4962707;28;46198;-59
2022/07/27 08:10:36;;;;;;;;;5.00;5.00;;;;;21.60;50.92;101663.91;4961602;28;45258;-59
2022/07/27 08:13:02;;;;;;;;;8.25;3.75;;;;;21.65;51.03;101664.34;4962780;28;45328;-59
2022/07/27 08:15:29;;;;;;;;;4.00;4.00;;;;;21.70;51.17;101655.88;4962880;28;45477;-59
2022/07/27 08:17:54;;;;;;;;;5.00;5.00;;;;;21.69;50.84;101649.66;4962304;28;46074;-59
2022/07/27 08:20:21;;;;;;;;;7.00;4.25;;;;;21.72;50.80;101653.91;4962662;28;45331;-59
2022/07/27 08:22:46;;;;;;;;;10.00;7.25;;;;;21.77;50.95;101656.16;4962433;28;45285;-59
2022/07/27 08:25:12;;;;;;;;;6.50;5.50;;;;;21.78;50.93;101652.50;4962563;28;45402;-59
2022/07/27 08:27:38;;;;;;;;;6.00;4.25;;;;;21.79;50.83;101654.19;4962186;28;46312;-59
2022/07/27 08:30:06;;;;;;;;;7.00;4.75;;;;;21.84;50.85;101651.94;4962613;28;45193;-59
2022/07/27 08:32:31;;;;;;;;;8.50;5.00;;;;;21.89;50.70;101653.22;4962601;28;45325;-59
2022/07/27 08:34:57;;;;;;;;;4.75;3.50;;;;;21.94;50.54;101648.25;4962204;28;46144;-59
2022/07/27 08:37:22;;;;;;;;;7.50;5.25;;;;;21.98;50.57;101651.50;4956493;28;45251;-59
2022/07/27 08:39:48;;;;;;;;;7.00;5.00;;;;;22.02;50.32;101651.06;4950305;28;45374;-59
2022/07/27 08:42:16;;;;;;;;;7.00;5.25;;;;;22.05;50.39;101644.59;4960998;28;45238;-59
2022/07/27 08:44:43;;;;;;;;;9.50;6.50;;;;;22.12;50.49;101652.91;4962251;28;45469;-59
2022/07/27 08:47:09;;;;;;;;;8.50;6.25;;;;;22.15;50.43;101639.22;4961912;28;45280;-59
2022/07/27 08:49:38;;;;;;;;;6.25;4.50;;;;;22.20;50.07;101640.50;4962458;28;45241;-59
2022/07/27 08:52:04;;;;;;;;;7.25;5.00;;;;;22.26;50.05;101642.56;4962091;28;45257;-59
2022/07/27 08:54:30;;;;;;;;;7.50;4.00;;;;;22.32;49.83;101648.38;4960886;28;45375;-59
2022/07/27 08:56:55;;;;;;;;;7.50;6.50;;;;;22.37;49.76;101646.94;4961952;28;46233;-59
2022/07/27 08:59:21;;;;;;;;;6.00;4.75;;;;;22.39;49.55;101647.63;4962015;28;45310;-59
2022/07/27 09:01:46;;;;;;;;;5.75;5.75;;;;;22.41;49.74;101647.50;4962048;28;45361;-59
2022/07/27 09:04:12;;;;;;;;;6.25;6.00;;;;;22.43;49.46;101648.19;4962571;28;45310;-59
2022/07/27 09:06:49;;;;;;;;;7.00;6.75;;;;;22.47;49.30;101633.47;4961842;28;46393;-60
2022/07/27 09:09:17;;;;;;;;;6.75;5.00;;;;;22.51;49.37;101642.91;4961772;28;45332;-60
2022/07/27 09:11:43;;;;;;;;;8.50;7.50;;;;;22.55;48.93;101650.56;4961941;28;45498;-59
2022/07/27 09:14:11;;;;;;;;;6.00;6.00;;;;;22.61;48.80;101646.44;4962023;28;45294;-59
2022/07/27 09:16:38;;;;;;;;;7.25;7.25;;;;;22.60;49.11;101649.28;4961652;28;45400;-59
2022/07/27 09:19:08;;;;;;;;;5.00;5.00;;;;;22.56;48.59;101633.44;4961722;28;45425;-59
2022/07/27 09:21:35;;;;;;;;;6.25;5.25;;;;;22.62;48.59;101640.06;4962325;28;45364;-59
2022/07/27 09:24:13;;;;;;;;;6.25;5.25;;;;;22.69;48.66;101643.03;4965332;28;45321;-59
2022/07/27 09:26:40;;;;;;;;;7.50;6.00;;;;;22.75;48.34;101648.66;4965206;28;45443;-59
2022/07/27 09:29:10;;;;;;;;;6.00;5.50;;;;;22.84;47.97;101644.22;4965219;28;45335;-59
2022/07/27 09:31:54;;;;;;;;;6.25;5.75;;;;;22.93;47.93;101642.53;4965257;28;45320;-59
2022/07/27 09:34:29;;;;;;;;;8.00;5.50;;;;;23.02;47.72;101647.84;4965060;28;45438;-59
2022/07/27 09:36:56;;;;;;;;;5.00;5.00;;;;;23.07;47.47;101650.09;4962834;28;45430;-59
2022/07/27 09:39:24;;;;;;;;;7.50;4.25;;;;;23.13;47.06;101646.78;4958254;28;45723;-59
2022/07/27 09:42:01;;;;;;;;;5.00;4.50;;;;;23.22;46.59;101650.41;4945610;28;45358;-59
2022/07/27 09:44:37;;;;;;;;;2.75;2.75;;;;;23.24;46.49;101643.91;4945276;28;45605;-59
2022/07/27 09:47:26;;;;;;;;;5.00;5.00;;;;;23.26;45.95;101646.44;4945158;28;45405;-59
2022/07/27 09:49:53;;;;;;;;;4.00;3.50;;;;;23.17;46.13;101644.66;4945614;28;45372;-59
2022/07/27 09:52:29;;;;;;;;;5.50;5.00;;;;;23.20;46.38;101653.25;4945149;28;45228;-59
2022/07/27 09:55:03;;;;;;;;;4.75;3.50;;;;;23.26;46.34;101633.81;4945493;28;45416;-59
2022/07/27 09:57:29;;;;;;;;;5.25;4.75;;;;;23.23;45.82;101636.84;4945493;28;45402;-59
2022/07/27 10:00:12;;;;;;;;;6.00;5.00;;;;;23.30;46.12;101634.34;4945519;28;45395;-58
2022/07/27 10:02:39;;;;;;;;;6.00;5.25;;;;;23.31;45.50;101641.44;4952954;28;45461;-59
2022/07/27 10:05:06;;;;;;;;;4.00;3.25;;;;;23.35;45.39;101634.75;4964646;28;45466;-59
2022/07/27 10:07:32;;;;;;;;;4.00;2.00;;;;;23.37;44.87;101630.91;4964471;28;45271;-59
2022/07/27 10:09:57;;;;;;;;;2.50;2.50;;;;;23.42;44.92;101625.09;4964486;28;45164;-59
2022/07/27 10:12:23;;;;;;;;;2.00;2.00;;;;;23.52;44.56;101625.84;4964707;28;45351;-60
2022/07/27 10:14:48;;;;;;;;;3.00;2.75;;;;;23.55;44.33;101630.09;4964398;28;45389;-59
2022/07/27 10:17:14;;;;;;;;;3.75;3.75;;;;;23.64;44.11;101631.88;4964185;28;45333;-59
2022/07/27 10:19:45;;;;;;;;;3.50;3.00;;;;;23.76;44.27;101619.03;4964400;28;45357;-59
2022/07/27 10:22:11;;;;;;;;;3.00;3.00;;;;;23.73;44.03;101622.03;4963756;28;45477;-59
2022/07/27 10:24:37;;;;;;;;;4.25;3.00;;;;;23.83;43.76;101620.09;4964164;28;45181;-59
2022/07/27 10:27:19;;;;;;;;;3.75;3.00;;;;;23.97;43.90;101614.16;4964011;28;45250;-59
2022/07/27 10:29:46;;;;;;;;;5.75;4.25;;;;;24.09;43.73;101617.44;4964232;28;45401;-59
2022/07/27 10:32:23;;;;;;;;;4.00;4.00;;;;;24.17;43.30;101621.03;4964328;28;45463;-59
2022/07/27 10:34:48;;;;;;;;;5.50;4.00;;;;;24.21;43.47;101617.03;4962682;28;46640;-59
2022/07/27 10:37:16;;;;;;;;;6.00;3.00;;;;;24.27;42.76;101614.72;4959470;28;45517;-59
2022/07/27 10:39:50;;;;;;;;;4.25;3.50;;;;;24.35;43.06;101618.31;4951453;28;45251;-60
2022/07/27 10:42:29;;;;;;;;;5.00;3.00;;;;;24.37;43.10;101616.31;4964088;28;45509;-59
2022/07/27 10:44:56;;;;;;;;;4.00;3.75;;;;;24.50;42.35;101618.56;4963968;28;45489;-59
2022/07/27 10:47:30;;;;;;;;;5.25;4.25;;;;;24.60;42.36;101607.69;4962297;28;46338;-59
2022/07/27 10:50:14;;;;;;;;;5.25;4.50;;;;;24.70;42.51;101608.38;4963848;28;45265;-59
2022/07/27 10:52:46;;;;;;;;;5.00;4.50;;;;;24.75;42.20;101609.59;4963636;28;45375;-59
2022/07/27 10:55:32;;;;;;;;;7.00;4.00;;;;;24.82;42.17;101598.19;4963665;28;45495;-59
2022/07/27 10:58:13;;;;;;;;;5.25;3.75;;;;;24.89;41.93;101601.91;4963442;28;46351;-59
2022/07/27 11:00:47;;;;;;;;;3.00;3.00;;;;;24.96;41.91;101597.53;4963413;28;45354;-60
2022/07/27 11:03:24;;;;;;;;;3.25;3.25;;;;;25.03;41.63;101596.75;4963771;28;45290;-60
2022/07/27 11:06:04;;;;;;;;;3.25;2.50;;;;;25.00;41.48;101596.19;4963610;28;45325;-59
2022/07/27 11:08:33;;;;;;;;;4.25;3.75;;;;;25.00;41.67;101583.56;4963097;28;45336;-58
2022/07/27 11:10:59;;;;;;;;;4.00;2.50;;;;;25.08;41.36;101587.31;4963534;28;45234;-59
2022/07/27 11:13:27;;;;;;;;;3.50;3.00;;;;;25.05;40.94;101585.81;4963508;28;45323;-59
2022/07/27 11:16:07;;;;;;;;;4.50;3.25;;;;;24.92;40.33;101572.75;4963273;28;45375;-58
2022/07/27 11:18:36;;;;;;;;;2.00;2.00;;;;;24.89;40.25;101573.09;4963107;28;45415;-59
2022/07/27 11:21:15;;;;;;;;;6.00;2.25;;;;;24.89;40.45;101577.66;4963384;28;45314;-58
2022/07/27 11:23:45;;;;;;;;;3.75;3.00;;;;;24.85;40.29;101573.59;4963122;28;45512;-58
2022/07/27 11:26:11;;;;;;;;;5.75;3.00;;;;;24.87;40.29;101563.47;4962939;28;45365;-58
2022/07/27 11:28:38;;;;;;;;;5.75;3.00;;;;;24.81;39.95;101564.16;4963291;28;45381;-58